sensor_id;sensor_type;location;lat;lon;timestamp;pressure;altitude;pressure_sealevel;temperature;humidity
12213;BME280;6169;44.158;22.788;2022-07-30T00:00:59;100769.75;;;30.80;74.03
12213;BME280;6169;44.158;22.788;2022-07-30T00:06:01;100770.28;;;30.94;71.60
12213;BME280;6169;44.158;22.788;2022-07-30T00:11:05;100772.38;;;30.76;73.78
12213;BME280;6169;44.158;22.788;2022-07-30T00:16:07;100781.28;;;30.70;74.03
12213;BME280;6169;44.158;22.788;2022-07-30T00:21:09;100773.06;;;30.73;69.59
12213;BME280;6169;44.158;22.788;2022-07-30T00:26:13;100774.66;;;30.53;74.32
12213;BME280;6169;44.158;22.788;2022-07-30T00:31:15;100791.91;;;30.47;74.56
12213;BME280;6169;44.158;22.788;2022-07-30T00:36:17;100787.78;;;30.53;74.36
12213;BME280;6169;44.158;22.788;2022-07-30T00:41:21;100788.22;;;30.55;73.19
12213;BME280;6169;44.158;22.788;2022-07-30T00:46:24;100791.59;;;30.40;74.56
12213;BME280;6169;44.158;22.788;2022-07-30T00:51:26;100800.34;;;30.59;72.49
12213;BME280;6169;44.158;22.788;2022-07-30T00:56:29;100804.63;;;30.09;74.65
12213;BME280;6169;44.158;22.788;2022-07-30T01:01:32;100810.28;;;30.39;71.06
12213;BME280;6169;44.158;22.788;2022-07-30T01:06:34;100830.09;;;30.67;70.89
12213;BME280;6169;44.158;22.788;2022-07-30T01:11:39;100823.59;;;30.25;71.58
12213;BME280;6169;44.158;22.788;2022-07-30T01:16:42;100810.09;;;30.44;70.61
12213;BME280;6169;44.158;22.788;2022-07-30T01:21:47;100807.06;;;30.58;69.99
12213;BME280;6169;44.158;22.788;2022-07-30T01:26:54;100801.94;;;30.39;69.80
12213;BME280;6169;44.158;22.788;2022-07-30T01:31:57;100776.97;;;30.81;68.03
12213;BME280;6169;44.158;22.788;2022-07-30T01:37:01;100772.94;;;30.70;68.00
12213;BME280;6169;44.158;22.788;2022-07-30T01:42:10;100760.75;;;29.85;72.80
12213;BME280;6169;44.158;22.788;2022-07-30T01:47:13;100759.25;;;29.88;73.05
12213;BME280;6169;44.158;22.788;2022-07-30T01:52:19;100761.91;;;30.14;73.37
12213;BME280;6169;44.158;22.788;2022-07-30T01:57:24;100765.88;;;29.66;77.24
12213;BME280;6169;44.158;22.788;2022-07-30T02:02:27;100777.00;;;29.66;77.62
12213;BME280;6169;44.158;22.788;2022-07-30T02:07:35;100784.16;;;29.67;78.39
12213;BME280;6169;44.158;22.788;2022-07-30T02:12:44;100791.06;;;30.08;73.24
12213;BME280;6169;44.158;22.788;2022-07-30T02:17:53;100803.78;;;30.17;73.28
12213;BME280;6169;44.158;22.788;2022-07-30T02:23:00;100797.72;;;30.15;72.41
12213;BME280;6169;44.158;22.788;2022-07-30T02:28:07;100803.16;;;30.12;71.62
12213;BME280;6169;44.158;22.788;2022-07-30T02:33:11;100806.06;;;30.33;70.87
12213;BME280;6169;44.158;22.788;2022-07-30T02:38:16;100808.66;;;30.29;70.79
12213;BME280;6169;44.158;22.788;2022-07-30T02:43:23;100794.84;;;30.03;71.93
12213;BME280;6169;44.158;22.788;2022-07-30T02:48:26;100792.53;;;30.14;72.99
12213;BME280;6169;44.158;22.788;2022-07-30T02:53:30;100791.56;;;30.01;71.66
12213;BME280;6169;44.158;22.788;2022-07-30T02:58:35;100788.59;;;29.68;72.90
12213;BME280;6169;44.158;22.788;2022-07-30T03:03:39;100792.19;;;29.60;72.40
12213;BME280;6169;44.158;22.788;2022-07-30T03:08:44;100791.22;;;29.47;73.68
12213;BME280;6169;44.158;22.788;2022-07-30T03:13:48;100797.41;;;29.70;71.35
12213;BME280;6169;44.158;22.788;2022-07-30T03:18:52;100787.19;;;30.00;70.66
12213;BME280;6169;44.158;22.788;2022-07-30T03:23:55;100806.59;;;30.09;69.40
12213;BME280;6169;44.158;22.788;2022-07-30T03:29:01;100809.66;;;29.78;72.16
12213;BME280;6169;44.158;22.788;2022-07-30T03:34:04;100816.69;;;29.75;73.00
12213;BME280;6169;44.158;22.788;2022-07-30T03:39:07;100806.69;;;29.83;73.11
12213;BME280;6169;44.158;22.788;2022-07-30T03:44:12;100814.44;;;30.24;70.05
12213;BME280;6169;44.158;22.788;2022-07-30T03:49:15;100823.06;;;30.31;71.10
12213;BME280;6169;44.158;22.788;2022-07-30T03:54:18;100833.44;;;30.13;70.46
12213;BME280;6169;44.158;22.788;2022-07-30T03:59:23;100832.75;;;30.16;71.62
12213;BME280;6169;44.158;22.788;2022-07-30T04:04:25;100830.31;;;30.15;71.87
12213;BME280;6169;44.158;22.788;2022-07-30T04:09:27;100835.72;;;30.11;72.23
12213;BME280;6169;44.158;22.788;2022-07-30T04:14:38;100836.44;;;29.91;71.10
12213;BME280;6169;44.158;22.788;2022-07-30T04:19:43;100844.91;;;30.03;69.31
12213;BME280;6169;44.158;22.788;2022-07-30T04:24:48;100838.84;;;30.01;69.25
12213;BME280;6169;44.158;22.788;2022-07-30T04:29:53;100840.09;;;29.74;69.10
12213;BME280;6169;44.158;22.788;2022-07-30T04:34:56;100844.38;;;30.10;67.66
12213;BME280;6169;44.158;22.788;2022-07-30T04:39:58;100842.06;;;29.74;69.18
12213;BME280;6169;44.158;22.788;2022-07-30T04:45:02;100847.28;;;29.75;69.55
12213;BME280;6169;44.158;22.788;2022-07-30T04:50:05;100856.28;;;29.72;69.64
12213;BME280;6169;44.158;22.788;2022-07-30T04:55:10;100859.03;;;29.81;69.29
12213;BME280;6169;44.158;22.788;2022-07-30T05:00:15;100860.75;;;30.11;67.72
12213;BME280;6169;44.158;22.788;2022-07-30T05:05:18;100860.50;;;29.87;69.12
12213;BME280;6169;44.158;22.788;2022-07-30T05:10:23;100853.78;;;30.44;66.53
12213;BME280;6169;44.158;22.788;2022-07-30T05:15:27;100844.75;;;30.08;67.85
12213;BME280;6169;44.158;22.788;2022-07-30T05:20:30;100695.59;;;29.39;67.26
12213;BME280;6169;44.158;22.788;2022-07-30T05:31:00;100845.63;;;29.31;77.12
12213;BME280;6169;44.158;22.788;2022-07-30T05:36:02;100847.69;;;30.03;74.58
12213;BME280;6169;44.158;22.788;2022-07-30T05:41:04;100843.88;;;30.64;71.62
12213;BME280;6169;44.158;22.788;2022-07-30T05:46:08;100851.97;;;29.92;74.47
12213;BME280;6169;44.158;22.788;2022-07-30T05:51:10;100850.00;;;30.48;70.80
12213;BME280;6169;44.158;22.788;2022-07-30T05:56:13;100854.16;;;30.63;68.39
12213;BME280;6169;44.158;22.788;2022-07-30T06:01:16;100856.34;;;31.38;66.20
12213;BME280;6169;44.158;22.788;2022-07-30T06:06:19;100857.78;;;31.77;62.73
12213;BME280;6169;44.158;22.788;2022-07-30T06:11:21;100734.47;;;29.48;67.63
12213;BME280;6169;44.158;22.788;2022-07-30T06:16:25;100855.56;;;30.87;67.16
12213;BME280;6169;44.158;22.788;2022-07-30T06:21:27;100868.91;;;31.23;66.90
12213;BME280;6169;44.158;22.788;2022-07-30T06:26:29;100849.06;;;30.44;68.63
12213;BME280;6169;44.158;22.788;2022-07-30T06:31:32;100852.19;;;31.23;63.97
12213;BME280;6169;44.158;22.788;2022-07-30T06:36:35;100860.25;;;30.09;68.52
12213;BME280;6169;44.158;22.788;2022-07-30T06:41:37;100866.81;;;31.41;64.42
12213;BME280;6169;44.158;22.788;2022-07-30T06:46:41;100861.03;;;29.63;70.94
12213;BME280;6169;44.158;22.788;2022-07-30T06:51:43;100846.81;;;31.39;62.76
12213;BME280;6169;44.158;22.788;2022-07-30T06:56:46;100852.09;;;30.90;65.63
12213;BME280;6169;44.158;22.788;2022-07-30T07:01:50;100855.38;;;31.55;64.54
12213;BME280;6169;44.158;22.788;2022-07-30T07:06:53;100855.75;;;31.99;61.50
12213;BME280;6169;44.158;22.788;2022-07-30T07:11:55;100863.63;;;30.71;64.07
12213;BME280;6169;44.158;22.788;2022-07-30T07:16:59;100874.88;;;31.13;65.50
12213;BME280;6169;44.158;22.788;2022-07-30T07:22:02;100863.94;;;32.41;59.39
12213;BME280;6169;44.158;22.788;2022-07-30T07:27:04;100863.81;;;31.79;62.24
12213;BME280;6169;44.158;22.788;2022-07-30T07:32:09;100858.97;;;31.88;62.02
12213;BME280;6169;44.158;22.788;2022-07-30T07:37:12;100862.88;;;32.08;60.01
12213;BME280;6169;44.158;22.788;2022-07-30T07:42:14;100855.28;;;32.67;57.56
12213;BME280;6169;44.158;22.788;2022-07-30T07:47:18;100842.56;;;33.06;57.38
12213;BME280;6169;44.158;22.788;2022-07-30T07:52:20;100826.88;;;32.65;56.09
12213;BME280;6169;44.158;22.788;2022-07-30T07:57:23;100819.63;;;33.00;56.82
12213;BME280;6169;44.158;22.788;2022-07-30T08:02:26;100817.75;;;32.80;56.98
12213;BME280;6169;44.158;22.788;2022-07-30T08:07:29;100820.31;;;32.85;57.23
12213;BME280;6169;44.158;22.788;2022-07-30T08:12:31;100809.31;;;33.45;55.42
12213;BME280;6169;44.158;22.788;2022-07-30T08:17:38;100818.34;;;32.00;57.66
12213;BME280;6169;44.158;22.788;2022-07-30T08:22:41;100828.31;;;32.99;56.47
12213;BME280;6169;44.158;22.788;2022-07-30T08:27:43;100830.47;;;32.65;55.72
12213;BME280;6169;44.158;22.788;2022-07-30T08:32:47;100819.81;;;33.20;53.95
12213;BME280;6169;44.158;22.788;2022-07-30T08:37:49;100822.44;;;32.39;55.53
12213;BME280;6169;44.158;22.788;2022-07-30T08:42:52;100810.09;;;33.58;53.45
12213;BME280;6169;44.158;22.788;2022-07-30T08:47:56;100800.91;;;33.57;52.94
12213;BME280;6169;44.158;22.788;2022-07-30T08:53:01;100804.56;;;33.89;51.36
12213;BME280;6169;44.158;22.788;2022-07-30T08:58:04;100801.53;;;33.38;53.72
12213;BME280;6169;44.158;22.788;2022-07-30T09:03:08;100773.59;;;33.98;50.34
12213;BME280;6169;44.158;22.788;2022-07-30T09:08:11;100791.34;;;35.24;46.02
12213;BME280;6169;44.158;22.788;2022-07-30T09:13:27;100779.59;;;35.57;48.25
12213;BME280;6169;44.158;22.788;2022-07-30T09:18:33;100768.13;;;35.46;45.13
12213;BME280;6169;44.158;22.788;2022-07-30T09:23:35;100760.50;;;35.89;45.72
12213;BME280;6169;44.158;22.788;2022-07-30T09:28:37;100754.53;;;35.68;44.13
12213;BME280;6169;44.158;22.788;2022-07-30T09:33:42;100749.69;;;34.68;47.00
12213;BME280;6169;44.158;22.788;2022-07-30T09:38:46;100742.09;;;36.15;44.62
12213;BME280;6169;44.158;22.788;2022-07-30T09:43:51;100732.63;;;36.00;42.33
12213;BME280;6169;44.158;22.788;2022-07-30T09:49:13;100724.59;;;36.25;42.50
12213;BME280;6169;44.158;22.788;2022-07-30T09:54:16;100727.50;;;34.98;43.86
12213;BME280;6169;44.158;22.788;2022-07-30T09:59:25;100713.53;;;36.36;41.53
12213;BME280;6169;44.158;22.788;2022-07-30T10:04:31;100703.88;;;35.38;43.37
12213;BME280;6169;44.158;22.788;2022-07-30T10:09:35;100701.44;;;36.05;42.54
12213;BME280;6169;44.158;22.788;2022-07-30T10:14:37;100700.97;;;36.87;41.60
12213;BME280;6169;44.158;22.788;2022-07-30T10:19:44;100686.38;;;35.67;44.05
12213;BME280;6169;44.158;22.788;2022-07-30T10:24:47;100695.84;;;36.96;40.53
12213;BME280;6169;44.158;22.788;2022-07-30T10:29:51;100686.25;;;37.34;39.86
12213;BME280;6169;44.158;22.788;2022-07-30T10:34:55;100685.38;;;38.23;37.61
12213;BME280;6169;44.158;22.788;2022-07-30T10:40:04;100679.59;;;36.78;39.61
12213;BME280;6169;44.158;22.788;2022-07-30T10:45:16;100665.38;;;35.58;38.84
12213;BME280;6169;44.158;22.788;2022-07-30T10:50:22;100635.72;;;37.04;36.68
12213;BME280;6169;44.158;22.788;2022-07-30T10:55:27;100643.63;;;37.77;36.17
12213;BME280;6169;44.158;22.788;2022-07-30T11:00:31;100627.69;;;37.47;35.62
12213;BME280;6169;44.158;22.788;2022-07-30T11:05:35;100625.88;;;38.35;34.96
12213;BME280;6169;44.158;22.788;2022-07-30T11:10:38;100619.84;;;38.37;32.98
12213;BME280;6169;44.158;22.788;2022-07-30T11:15:55;100615.47;;;38.46;31.14
12213;BME280;6169;44.158;22.788;2022-07-30T11:21:20;100589.22;;;37.58;33.47
12213;BME280;6169;44.158;22.788;2022-07-30T11:26:46;100580.53;;;38.79;31.66
12213;BME280;6169;44.158;22.788;2022-07-30T11:31:49;100569.66;;;37.80;32.86
12213;BME280;6169;44.158;22.788;2022-07-30T11:37:10;100544.69;;;37.19;33.73
12213;BME280;6169;44.158;22.788;2022-07-30T11:42:23;100543.75;;;38.26;33.25
12213;BME280;6169;44.158;22.788;2022-07-30T11:47:27;100527.31;;;37.58;33.67
12213;BME280;6169;44.158;22.788;2022-07-30T11:52:31;100502.84;;;37.11;34.69
12213;BME280;6169;44.158;22.788;2022-07-30T11:57:41;100495.44;;;37.40;34.11
12213;BME280;6169;44.158;22.788;2022-07-30T12:02:44;100483.81;;;38.36;33.95
12213;BME280;6169;44.158;22.788;2022-07-30T12:07:48;100471.00;;;38.60;33.02
12213;BME280;6169;44.158;22.788;2022-07-30T12:12:50;100458.91;;;39.38;31.29
12213;BME280;6169;44.158;22.788;2022-07-30T12:17:52;100440.81;;;38.75;30.24
12213;BME280;6169;44.158;22.788;2022-07-30T12:22:57;100442.44;;;38.58;31.35
12213;BME280;6169;44.158;22.788;2022-07-30T12:27:59;100437.84;;;39.68;29.77
12213;BME280;6169;44.158;22.788;2022-07-30T12:33:01;100422.63;;;38.26;30.28
12213;BME280;6169;44.158;22.788;2022-07-30T12:38:05;100418.22;;;39.11;29.74
12213;BME280;6169;44.158;22.788;2022-07-30T12:43:07;100394.84;;;39.14;27.84
12213;BME280;6169;44.158;22.788;2022-07-30T12:48:11;100410.69;;;39.99;26.55
12213;BME280;6169;44.158;22.788;2022-07-30T12:53:15;100395.09;;;40.40;27.31
12213;BME280;6169;44.158;22.788;2022-07-30T12:58:17;100344.06;;;39.35;28.74
12213;BME280;6169;44.158;22.788;2022-07-30T13:03:20;100384.38;;;39.32;28.54
12213;BME280;6169;44.158;22.788;2022-07-30T13:08:46;100374.81;;;40.52;27.14
12213;BME280;6169;44.158;22.788;2022-07-30T13:13:49;100362.34;;;40.91;26.70
12213;BME280;6169;44.158;22.788;2022-07-30T13:18:52;100347.09;;;40.81;26.64
12213;BME280;6169;44.158;22.788;2022-07-30T13:23:56;100332.63;;;40.75;27.22
12213;BME280;6169;44.158;22.788;2022-07-30T13:28:58;100319.16;;;40.45;27.06
12213;BME280;6169;44.158;22.788;2022-07-30T13:34:01;100321.94;;;40.52;27.45
12213;BME280;6169;44.158;22.788;2022-07-30T13:39:05;100324.31;;;40.54;27.78
12213;BME280;6169;44.158;22.788;2022-07-30T13:44:08;100329.53;;;39.40;28.23
12213;BME280;6169;44.158;22.788;2022-07-30T13:49:10;100347.75;;;39.07;28.36
12213;BME280;6169;44.158;22.788;2022-07-30T13:54:14;100341.72;;;39.01;29.91
12213;BME280;6169;44.158;22.788;2022-07-30T13:59:16;100332.84;;;39.07;28.25
12213;BME280;6169;44.158;22.788;2022-07-30T14:04:18;100340.16;;;38.68;30.11
12213;BME280;6169;44.158;22.788;2022-07-30T14:09:22;100340.16;;;38.43;30.14
12213;BME280;6169;44.158;22.788;2022-07-30T14:14:24;100334.44;;;37.82;29.82
12213;BME280;6169;44.158;22.788;2022-07-30T14:19:27;100345.72;;;37.93;29.77
12213;BME280;6169;44.158;22.788;2022-07-30T14:24:30;100326.34;;;37.70;30.49
12213;BME280;6169;44.158;22.788;2022-07-30T14:29:33;100351.16;;;37.39;30.93
12213;BME280;6169;44.158;22.788;2022-07-30T14:34:35;100346.00;;;37.56;31.33
12213;BME280;6169;44.158;22.788;2022-07-30T14:39:39;100372.44;;;37.37;31.85
12213;BME280;6169;44.158;22.788;2022-07-30T14:44:41;100373.56;;;37.18;33.23
12213;BME280;6169;44.158;22.788;2022-07-30T14:49:43;100384.53;;;36.78;33.45
12213;BME280;6169;44.158;22.788;2022-07-30T14:54:48;100416.84;;;36.17;36.36
12213;BME280;6169;44.158;22.788;2022-07-30T14:59:50;100469.53;;;33.32;44.65
12213;BME280;6169;44.158;22.788;2022-07-30T15:04:52;100485.75;;;30.80;49.49
12213;BME280;6169;44.158;22.788;2022-07-30T15:09:56;100507.94;;;30.01;56.16
12213;BME280;6169;44.158;22.788;2022-07-30T15:14:58;100514.31;;;29.81;61.64
12213;BME280;6169;44.158;22.788;2022-07-30T15:20:00;100488.78;;;28.08;79.43
12213;BME280;6169;44.158;22.788;2022-07-30T15:25:07;100456.84;;;26.78;93.21
12213;BME280;6169;44.158;22.788;2022-07-30T15:30:10;100517.69;;;26.70;95.10
12213;BME280;6169;44.158;22.788;2022-07-30T15:35:13;100524.53;;;27.03;98.16
12213;BME280;6169;44.158;22.788;2022-07-30T15:40:17;100504.00;;;27.44;97.34
12213;BME280;6169;44.158;22.788;2022-07-30T15:45:19;100523.34;;;28.19;92.45
12213;BME280;6169;44.158;22.788;2022-07-30T15:50:24;100547.75;;;28.87;87.40
12213;BME280;6169;44.158;22.788;2022-07-30T15:55:29;100573.03;;;29.41;88.03
12213;BME280;6169;44.158;22.788;2022-07-30T16:00:31;100535.38;;;28.75;87.23
12213;BME280;6169;44.158;22.788;2022-07-30T16:05:33;100532.84;;;28.91;86.67
12213;BME280;6169;44.158;22.788;2022-07-30T16:10:37;100492.19;;;29.04;88.90
12213;BME280;6169;44.158;22.788;2022-07-30T16:15:40;100525.94;;;28.07;99.36
12213;BME280;6169;44.158;22.788;2022-07-30T16:20:42;100542.03;;;28.83;90.76
12213;BME280;6169;44.158;22.788;2022-07-30T16:25:46;100529.53;;;28.51;90.86
12213;BME280;6169;44.158;22.788;2022-07-30T16:30:48;100573.78;;;28.47;90.88
12213;BME280;6169;44.158;22.788;2022-07-30T16:35:50;100571.28;;;28.28;90.27
12213;BME280;6169;44.158;22.788;2022-07-30T16:40:54;100572.41;;;28.01;88.50
12213;BME280;6169;44.158;22.788;2022-07-30T16:45:56;100575.91;;;27.67;89.06
12213;BME280;6169;44.158;22.788;2022-07-30T16:50:59;100579.63;;;28.28;86.60
12213;BME280;6169;44.158;22.788;2022-07-30T16:56:03;100591.00;;;28.01;87.68
12213;BME280;6169;44.158;22.788;2022-07-30T17:01:06;100620.56;;;27.57;92.37
12213;BME280;6169;44.158;22.788;2022-07-30T17:06:09;100643.91;;;27.11;99.13
12213;BME280;6169;44.158;22.788;2022-07-30T17:11:13;100658.00;;;26.55;100.00
12213;BME280;6169;44.158;22.788;2022-07-30T17:16:15;100681.06;;;26.51;98.11
12213;BME280;6169;44.158;22.788;2022-07-30T17:21:21;100705.22;;;26.45;95.77
12213;BME280;6169;44.158;22.788;2022-07-30T17:26:24;100716.09;;;26.55;94.05
12213;BME280;6169;44.158;22.788;2022-07-30T17:31:27;100754.38;;;26.62;89.43
12213;BME280;6169;44.158;22.788;2022-07-30T17:36:29;100755.34;;;26.80;88.42
12213;BME280;6169;44.158;22.788;2022-07-30T17:41:33;100762.25;;;26.55;89.01
12213;BME280;6169;44.158;22.788;2022-07-30T17:46:35;100746.19;;;26.93;87.20
12213;BME280;6169;44.158;22.788;2022-07-30T17:51:37;100737.66;;;27.03;85.92
12213;BME280;6169;44.158;22.788;2022-07-30T17:56:41;100746.13;;;27.21;85.09
12213;BME280;6169;44.158;22.788;2022-07-30T18:01:44;100758.78;;;27.67;81.41
12213;BME280;6169;44.158;22.788;2022-07-30T18:06:46;100718.03;;;27.36;81.30
12213;BME280;6169;44.158;22.788;2022-07-30T18:11:52;100731.25;;;27.17;83.02
12213;BME280;6169;44.158;22.788;2022-07-30T18:16:54;100760.97;;;28.50;77.03
12213;BME280;6169;44.158;22.788;2022-07-30T18:21:58;100781.41;;;29.41;72.11
12213;BME280;6169;44.158;22.788;2022-07-30T18:27:02;100799.25;;;29.40;71.76
12213;BME280;6169;44.158;22.788;2022-07-30T18:32:05;100814.69;;;28.80;75.58
12213;BME280;6169;44.158;22.788;2022-07-30T18:37:08;100832.34;;;28.75;76.30
12213;BME280;6169;44.158;22.788;2022-07-30T18:42:12;100830.16;;;28.55;78.50
12213;BME280;6169;44.158;22.788;2022-07-30T18:47:14;100828.53;;;28.54;79.49
12213;BME280;6169;44.158;22.788;2022-07-30T18:52:17;100824.50;;;28.86;78.73
12213;BME280;6169;44.158;22.788;2022-07-30T18:57:21;100827.81;;;29.05;78.59
12213;BME280;6169;44.158;22.788;2022-07-30T19:02:23;100826.03;;;29.36;74.91
12213;BME280;6169;44.158;22.788;2022-07-30T19:07:26;100813.28;;;29.52;73.54
12213;BME280;6169;44.158;22.788;2022-07-30T19:12:29;100806.38;;;28.31;81.25
12213;BME280;6169;44.158;22.788;2022-07-30T19:17:32;100796.09;;;29.67;71.99
12213;BME280;6169;44.158;22.788;2022-07-30T19:22:34;100766.66;;;26.70;88.37
12213;BME280;6169;44.158;22.788;2022-07-30T19:27:38;100759.59;;;26.50;93.44
12213;BME280;6169;44.158;22.788;2022-07-30T19:32:41;100739.00;;;27.51;88.58
12213;BME280;6169;44.158;22.788;2022-07-30T19:37:43;100699.13;;;28.67;81.66
12213;BME280;6169;44.158;22.788;2022-07-30T19:42:48;100682.13;;;26.64;94.36
12213;BME280;6169;44.158;22.788;2022-07-30T19:47:50;100650.06;;;26.63;94.78
12213;BME280;6169;44.158;22.788;2022-07-30T19:52:52;100622.66;;;26.75;94.49
12213;BME280;6169;44.158;22.788;2022-07-30T19:57:56;100607.59;;;26.58;96.25
12213;BME280;6169;44.158;22.788;2022-07-30T20:02:59;100578.59;;;26.20;100.00
12213;BME280;6169;44.158;22.788;2022-07-30T20:08:02;100642.66;;;27.17;96.29
12213;BME280;6169;44.158;22.788;2022-07-30T20:13:06;100667.81;;;27.29;96.79
12213;BME280;6169;44.158;22.788;2022-07-30T20:18:09;100660.50;;;26.88;95.62
12213;BME280;6169;44.158;22.788;2022-07-30T20:23:11;100670.53;;;27.83;88.17
12213;BME280;6169;44.158;22.788;2022-07-30T20:28:15;100683.25;;;27.53;91.78
12213;BME280;6169;44.158;22.788;2022-07-30T20:33:17;100655.44;;;28.15;85.42
12213;BME280;6169;44.158;22.788;2022-07-30T20:38:19;100708.34;;;27.87;88.76
12213;BME280;6169;44.158;22.788;2022-07-30T20:43:23;100733.97;;;27.62;91.93
12213;BME280;6169;44.158;22.788;2022-07-30T20:48:25;100744.72;;;27.32;93.56
12213;BME280;6169;44.158;22.788;2022-07-30T20:53:34;100746.63;;;26.50;100.00
12213;BME280;6169;44.158;22.788;2022-07-30T20:58:37;100753.53;;;26.75;97.22
12213;BME280;6169;44.158;22.788;2022-07-30T21:03:40;100777.06;;;25.43;100.00
12213;BME280;6169;44.158;22.788;2022-07-30T21:08:43;100780.50;;;25.68;100.00
12213;BME280;6169;44.158;22.788;2022-07-30T21:13:46;100755.16;;;25.80;100.00
12213;BME280;6169;44.158;22.788;2022-07-30T21:18:48;100740.16;;;27.14;93.99
12213;BME280;6169;44.158;22.788;2022-07-30T21:23:51;100750.94;;;27.15;95.17
12213;BME280;6169;44.158;22.788;2022-07-30T21:28:55;100574.91;;;25.88;94.10
12213;BME280;6169;44.158;22.788;2022-07-30T21:33:57;100757.44;;;26.60;97.96
12213;BME280;6169;44.158;22.788;2022-07-30T21:38:59;100784.91;;;27.75;88.18
12213;BME280;6169;44.158;22.788;2022-07-30T21:44:03;100755.03;;;27.63;89.33
12213;BME280;6169;44.158;22.788;2022-07-30T21:49:06;100754.28;;;27.48;90.48
12213;BME280;6169;44.158;22.788;2022-07-30T21:54:08;100759.50;;;27.27;90.31
12213;BME280;6169;44.158;22.788;2022-07-30T21:59:12;100766.06;;;26.59;95.33
12213;BME280;6169;44.158;22.788;2022-07-30T22:04:14;100745.84;;;26.72;92.97
12213;BME280;6169;44.158;22.788;2022-07-30T22:09:16;100748.94;;;26.43;93.82
12213;BME280;6169;44.158;22.788;2022-07-30T22:14:20;100733.81;;;25.99;96.80
12213;BME280;6169;44.158;22.788;2022-07-30T22:19:22;100744.56;;;25.21;100.00
12213;BME280;6169;44.158;22.788;2022-07-30T22:24:25;100748.16;;;25.55;100.00
12213;BME280;6169;44.158;22.788;2022-07-30T22:29:28;100740.44;;;25.84;100.00
12213;BME280;6169;44.158;22.788;2022-07-30T22:34:32;100728.50;;;26.16;97.32
12213;BME280;6169;44.158;22.788;2022-07-30T22:39:34;100713.44;;;26.09;96.56
12213;BME280;6169;44.158;22.788;2022-07-30T22:44:38;100715.19;;;26.69;92.59
12213;BME280;6169;44.158;22.788;2022-07-30T22:49:40;100715.66;;;25.65;100.00
12213;BME280;6169;44.158;22.788;2022-07-30T22:54:42;100694.97;;;24.97;100.00
12213;BME280;6169;44.158;22.788;2022-07-30T22:59:46;100686.72;;;24.78;100.00
12213;BME280;6169;44.158;22.788;2022-07-30T23:04:48;100677.84;;;25.00;100.00
12213;BME280;6169;44.158;22.788;2022-07-30T23:09:50;100669.69;;;25.56;100.00
12213;BME280;6169;44.158;22.788;2022-07-30T23:14:54;100656.50;;;25.66;100.00
12213;BME280;6169;44.158;22.788;2022-07-30T23:19:56;100650.13;;;26.35;94.54
12213;BME280;6169;44.158;22.788;2022-07-30T23:24:59;100657.97;;;25.91;96.69
12213;BME280;6169;44.158;22.788;2022-07-30T23:30:03;100658.47;;;25.19;100.00
12213;BME280;6169;44.158;22.788;2022-07-30T23:35:06;100548.22;;;24.81;99.19
12213;BME280;6169;44.158;22.788;2022-07-30T23:40:09;100673.69;;;25.63;98.43
12213;BME280;6169;44.158;22.788;2022-07-30T23:45:13;100667.59;;;25.94;95.83
12213;BME280;6169;44.158;22.788;2022-07-30T23:50:16;100681.16;;;25.49;99.14
12213;BME280;6169;44.158;22.788;2022-07-30T23:55:19;100692.34;;;24.30;100.00
